sensor_id;sensor_type;location;lat;lon;timestamp;pressure;altitude;pressure_sealevel;temperature;humidity
51333;BME280;37417;48.118;11.734;2023-03-03T08:28:16;95566.28;;;2.11;100.00
51333;BME280;37417;48.118;11.734;2023-03-03T08:30:42;95565.78;;;2.63;100.00
51333;BME280;37417;48.118;11.734;2023-03-03T08:33:08;95567.69;;;2.70;100.00
51333;BME280;37417;48.118;11.734;2023-03-03T08:35:33;95566.03;;;2.42;100.00
51333;BME280;37417;48.118;11.734;2023-03-03T08:37:59;95573.41;;;2.64;100.00
51333;BME280;37417;48.118;11.734;2023-03-03T08:40:24;95572.31;;;2.30;100.00
51333;BME280;37417;48.118;11.734;2023-03-03T08:42:49;95573.97;;;2.21;100.00
51333;BME280;37417;48.118;11.734;2023-03-03T08:45:15;95573.56;;;2.81;100.00
51333;BME280;37417;48.118;11.734;2023-03-03T08:47:40;95573.53;;;2.90;100.00
51333;BME280;37417;48.118;11.734;2023-03-03T08:50:07;95581.31;;;2.81;100.00
51333;BME280;37417;48.118;11.734;2023-03-03T08:52:33;95587.41;;;3.43;100.00
51333;BME280;37417;48.118;11.734;2023-03-03T08:54:58;95590.84;;;3.69;100.00
51333;BME280;37417;48.118;11.734;2023-03-03T08:57:23;95587.84;;;4.00;100.00
51333;BME280;37417;48.118;11.734;2023-03-03T08:59:49;95592.94;;;3.48;100.00
51333;BME280;37417;48.118;11.734;2023-03-03T09:02:14;95589.41;;;3.49;100.00
51333;BME280;37417;48.118;11.734;2023-03-03T09:04:41;95595.06;;;3.96;100.00
51333;BME280;37417;48.118;11.734;2023-03-03T09:07:06;95594.06;;;4.15;100.00
51333;BME280;37417;48.118;11.734;2023-03-03T09:09:32;95586.63;;;4.38;100.00
51333;BME280;37417;48.118;11.734;2023-03-03T09:11:58;95592.06;;;4.27;100.00
51333;BME280;37417;48.118;11.734;2023-03-03T09:14:27;95592.75;;;4.37;100.00
51333;BME280;37417;48.118;11.734;2023-03-03T09:16:54;95585.00;;;3.85;100.00
51333;BME280;37417;48.118;11.734;2023-03-03T09:19:26;95591.59;;;3.62;100.00
51333;BME280;37417;48.118;11.734;2023-03-03T09:21:55;95594.03;;;4.07;100.00
51333;BME280;37417;48.118;11.734;2023-03-03T09:24:30;95591.13;;;3.84;100.00
51333;BME280;37417;48.118;11.734;2023-03-03T09:26:57;95580.19;;;3.90;100.00
51333;BME280;37417;48.118;11.734;2023-03-03T09:29:28;95585.53;;;3.71;100.00
51333;BME280;37417;48.118;11.734;2023-03-03T09:31:55;95592.19;;;3.38;100.00
51333;BME280;37417;48.118;11.734;2023-03-03T09:36:59;95603.69;;;3.43;100.00
51333;BME280;37417;48.118;11.734;2023-03-03T09:39:26;95602.41;;;3.83;100.00
51333;BME280;37417;48.118;11.734;2023-03-03T09:42:18;95613.66;;;4.52;100.00
51333;BME280;37417;48.118;11.734;2023-03-03T09:53:21;95617.84;;;4.87;100.00
51333;BME280;37417;48.118;11.734;2023-03-03T09:56:08;95613.88;;;4.67;100.00
51333;BME280;37417;48.118;11.734;2023-03-03T10:01:41;95623.16;;;5.36;100.00
51333;BME280;37417;48.118;11.734;2023-03-03T10:06:48;95626.28;;;5.64;100.00
51333;BME280;37417;48.118;11.734;2023-03-03T10:15:14;95631.84;;;5.93;100.00
51333;BME280;37417;48.118;11.734;2023-03-03T10:17:51;95633.09;;;5.81;100.00
51333;BME280;37417;48.118;11.734;2023-03-03T10:23:07;95631.28;;;5.65;100.00
51333;BME280;37417;48.118;11.734;2023-03-03T10:25:41;95636.31;;;5.67;100.00
51333;BME280;37417;48.118;11.734;2023-03-03T10:48:11;95629.50;;;5.41;100.00
51333;BME280;37417;48.118;11.734;2023-03-03T10:50:53;95635.31;;;6.66;100.00
51333;BME280;37417;48.118;11.734;2023-03-03T11:04:21;95624.50;;;6.30;100.00
51333;BME280;37417;48.118;11.734;2023-03-03T11:07:12;95632.22;;;7.10;100.00
51333;BME280;37417;48.118;11.734;2023-03-03T11:26:06;61376.22;;;-141.85;100.00
51333;BME280;37417;48.118;11.734;2023-03-03T11:31:48;61376.22;;;-141.85;100.00
51333;BME280;37417;48.118;11.734;2023-03-03T11:37:09;61376.22;;;-141.85;100.00
51333;BME280;37417;48.118;11.734;2023-03-03T11:39:37;61376.22;;;-141.85;100.00
51333;BME280;37417;48.118;11.734;2023-03-03T11:49:40;61376.22;;;-141.85;100.00
51333;BME280;37417;48.118;11.734;2023-03-03T12:00:47;61376.22;;;-141.85;100.00
51333;BME280;37417;48.118;11.734;2023-03-03T12:03:24;61376.22;;;-141.85;100.00
51333;BME280;37417;48.118;11.734;2023-03-03T12:09:00;61376.22;;;-141.85;100.00
51333;BME280;37417;48.118;11.734;2023-03-03T12:12:22;61376.22;;;-141.85;100.00
51333;BME280;37417;48.118;11.734;2023-03-03T12:20:18;61376.22;;;-141.85;100.00
51333;BME280;37417;48.118;11.734;2023-03-03T12:25:28;61376.22;;;-141.85;100.00
51333;BME280;37417;48.118;11.734;2023-03-03T12:28:17;61376.22;;;-141.85;100.00
51333;BME280;37417;48.118;11.734;2023-03-03T12:36:17;61376.22;;;-141.85;100.00
51333;BME280;37417;48.118;11.734;2023-03-03T12:47:05;61376.22;;;-141.85;100.00
51333;BME280;37417;48.118;11.734;2023-03-03T12:52:32;61376.22;;;-141.85;100.00
51333;BME280;37417;48.118;11.734;2023-03-03T12:55:10;61376.22;;;-141.85;100.00
51333;BME280;37417;48.118;11.734;2023-03-03T13:02:58;61376.22;;;-141.85;100.00
51333;BME280;37417;48.118;11.734;2023-03-03T13:05:43;61376.22;;;-141.85;100.00
51333;BME280;37417;48.118;11.734;2023-03-03T13:11:17;61376.22;;;-141.85;100.00
51333;BME280;37417;48.118;11.734;2023-03-03T13:20:21;61376.22;;;-141.85;100.00
51333;BME280;37417;48.118;11.734;2023-03-03T13:22:56;61376.22;;;-141.85;100.00
51333;BME280;37417;48.118;11.734;2023-03-03T13:28:10;61376.22;;;-141.85;100.00
51333;BME280;37417;48.118;11.734;2023-03-03T13:30:41;61376.22;;;-141.85;100.00
51333;BME280;37417;48.118;11.734;2023-03-03T13:33:25;61376.22;;;-141.85;100.00
51333;BME280;37417;48.118;11.734;2023-03-03T13:36:01;61376.22;;;-141.85;100.00
51333;BME280;37417;48.118;11.734;2023-03-03T13:38:30;61376.22;;;-141.85;100.00
51333;BME280;37417;48.118;11.734;2023-03-03T13:41:00;61376.22;;;-141.85;100.00
51333;BME280;37417;48.118;11.734;2023-03-03T13:43:34;61376.22;;;-141.85;100.00
51333;BME280;37417;48.118;11.734;2023-03-03T13:49:31;61376.22;;;-141.85;100.00
51333;BME280;37417;48.118;11.734;2023-03-03T13:52:05;61376.22;;;-141.85;100.00
51333;BME280;37417;48.118;11.734;2023-03-03T14:00:21;61376.22;;;-141.85;100.00
51333;BME280;37417;48.118;11.734;2023-03-03T14:03:07;61376.22;;;-141.85;100.00
51333;BME280;37417;48.118;11.734;2023-03-03T14:06:01;61376.22;;;-141.85;100.00
51333;BME280;37417;48.118;11.734;2023-03-03T14:17:16;61376.22;;;-141.85;100.00
51333;BME280;37417;48.118;11.734;2023-03-03T14:19:52;61376.22;;;-141.85;100.00
51333;BME280;37417;48.118;11.734;2023-03-03T14:22:41;61376.22;;;-141.85;100.00
51333;BME280;37417;48.118;11.734;2023-03-03T14:25:12;61376.22;;;-141.85;100.00
51333;BME280;37417;48.118;11.734;2023-03-03T14:33:18;61376.22;;;-141.85;100.00
51333;BME280;37417;48.118;11.734;2023-03-03T14:35:50;61376.22;;;-141.85;100.00
51333;BME280;37417;48.118;11.734;2023-03-03T14:38:39;61376.22;;;-141.85;100.00
51333;BME280;37417;48.118;11.734;2023-03-03T14:43:40;61376.22;;;-141.85;100.00
51333;BME280;37417;48.118;11.734;2023-03-03T14:46:37;61376.22;;;-141.85;100.00
51333;BME280;37417;48.118;11.734;2023-03-03T14:49:28;61376.22;;;-141.85;100.00
51333;BME280;37417;48.118;11.734;2023-03-03T14:54:49;61376.22;;;-141.85;100.00
51333;BME280;37417;48.118;11.734;2023-03-03T14:57:18;61376.22;;;-141.85;100.00
51333;BME280;37417;48.118;11.734;2023-03-03T14:59:59;61376.22;;;-141.85;100.00
51333;BME280;37417;48.118;11.734;2023-03-03T15:05:19;61376.22;;;-141.85;100.00
51333;BME280;37417;48.118;11.734;2023-03-03T15:08:06;61376.22;;;-141.85;100.00
51333;BME280;37417;48.118;11.734;2023-03-03T15:10:38;61376.22;;;-141.85;100.00
51333;BME280;37417;48.118;11.734;2023-03-03T15:16:01;61376.22;;;-141.85;100.00
51333;BME280;37417;48.118;11.734;2023-03-03T15:18:29;61376.22;;;-141.85;100.00
51333;BME280;37417;48.118;11.734;2023-03-03T15:21:12;61376.22;;;-141.85;100.00
51333;BME280;37417;48.118;11.734;2023-03-03T15:26:22;61376.22;;;-141.85;100.00
51333;BME280;37417;48.118;11.734;2023-03-03T15:29:05;61376.22;;;-141.85;100.00
51333;BME280;37417;48.118;11.734;2023-03-03T15:34:33;61376.22;;;-141.85;100.00
51333;BME280;37417;48.118;11.734;2023-03-03T15:37:26;61376.22;;;-141.85;100.00
51333;BME280;37417;48.118;11.734;2023-03-03T15:40:08;61376.22;;;-141.85;100.00
51333;BME280;37417;48.118;11.734;2023-03-03T15:45:25;61376.22;;;-141.85;100.00
51333;BME280;37417;48.118;11.734;2023-03-03T15:48:29;61376.22;;;-141.85;100.00
51333;BME280;37417;48.118;11.734;2023-03-03T15:56:52;61376.22;;;-141.85;100.00
51333;BME280;37417;48.118;11.734;2023-03-03T16:02:27;61376.22;;;-141.85;100.00
51333;BME280;37417;48.118;11.734;2023-03-03T16:05:01;61376.22;;;-141.85;100.00
51333;BME280;37417;48.118;11.734;2023-03-03T16:07:45;61376.22;;;-141.85;100.00
51333;BME280;37417;48.118;11.734;2023-03-03T16:18:04;61376.22;;;-141.85;100.00
51333;BME280;37417;48.118;11.734;2023-03-03T16:20:32;61376.22;;;-141.85;100.00
51333;BME280;37417;48.118;11.734;2023-03-03T16:26:13;61376.22;;;-141.85;100.00
51333;BME280;37417;48.118;11.734;2023-03-03T16:31:54;61376.22;;;-141.85;100.00
51333;BME280;37417;48.118;11.734;2023-03-03T16:34:29;61376.22;;;-141.85;100.00
51333;BME280;37417;48.118;11.734;2023-03-03T16:40:02;61376.22;;;-141.85;100.00
51333;BME280;37417;48.118;11.734;2023-03-03T16:42:30;61376.22;;;-141.85;100.00
51333;BME280;37417;48.118;11.734;2023-03-03T16:45:04;61376.22;;;-141.85;100.00
51333;BME280;37417;48.118;11.734;2023-03-03T16:47:48;61376.22;;;-141.85;100.00
51333;BME280;37417;48.118;11.734;2023-03-03T16:50:26;61376.22;;;-141.85;100.00
51333;BME280;37417;48.118;11.734;2023-03-03T16:53:14;61376.22;;;-141.85;100.00
51333;BME280;37417;48.118;11.734;2023-03-03T16:58:44;61376.22;;;-141.85;100.00
51333;BME280;37417;48.118;11.734;2023-03-03T17:01:24;61376.22;;;-141.85;100.00
51333;BME280;37417;48.118;11.734;2023-03-03T17:06:53;61376.22;;;-141.85;100.00
51333;BME280;37417;48.118;11.734;2023-03-03T17:09:21;61376.22;;;-141.85;100.00
51333;BME280;37417;48.118;11.734;2023-03-03T17:11:53;61376.22;;;-141.85;100.00
51333;BME280;37417;48.118;11.734;2023-03-03T17:17:14;61376.22;;;-141.85;100.00
51333;BME280;37417;48.118;11.734;2023-03-03T17:30:44;61376.22;;;-141.85;100.00
51333;BME280;37417;48.118;11.734;2023-03-03T17:39:31;61376.22;;;-141.85;100.00
51333;BME280;37417;48.118;11.734;2023-03-03T17:42:30;61376.22;;;-141.85;100.00
51333;BME280;37417;48.118;11.734;2023-03-03T17:45:08;61376.22;;;-141.85;100.00
51333;BME280;37417;48.118;11.734;2023-03-03T17:53:25;61376.22;;;-141.85;100.00
51333;BME280;37417;48.118;11.734;2023-03-03T17:56:04;61376.22;;;-141.85;100.00
51333;BME280;37417;48.118;11.734;2023-03-03T18:04:43;61376.22;;;-141.85;100.00
51333;BME280;37417;48.118;11.734;2023-03-03T18:07:30;61376.22;;;-141.85;100.00
51333;BME280;37417;48.118;11.734;2023-03-03T18:10:12;61376.22;;;-141.85;100.00
51333;BME280;37417;48.118;11.734;2023-03-03T18:18:04;61376.22;;;-141.85;100.00
51333;BME280;37417;48.118;11.734;2023-03-03T18:23:30;61376.22;;;-141.85;100.00
51333;BME280;37417;48.118;11.734;2023-03-03T18:26:00;61376.22;;;-141.85;100.00
51333;BME280;37417;48.118;11.734;2023-03-03T18:28:42;61376.22;;;-141.85;100.00
51333;BME280;37417;48.118;11.734;2023-03-03T18:31:20;61376.22;;;-141.85;100.00
51333;BME280;37417;48.118;11.734;2023-03-03T18:37:46;61376.22;;;-141.85;100.00
51333;BME280;37417;48.118;11.734;2023-03-03T18:39:49;61376.22;;;-141.85;100.00
51333;BME280;37417;48.118;11.734;2023-03-03T18:42:41;61376.22;;;-141.85;100.00
51333;BME280;37417;48.118;11.734;2023-03-03T18:50:40;61376.22;;;-141.85;100.00
51333;BME280;37417;48.118;11.734;2023-03-03T18:53:25;61376.22;;;-141.85;100.00
51333;BME280;37417;48.118;11.734;2023-03-03T18:56:00;61376.22;;;-141.85;100.00
51333;BME280;37417;48.118;11.734;2023-03-03T18:58:36;61376.22;;;-141.85;100.00
51333;BME280;37417;48.118;11.734;2023-03-03T19:01:13;61376.22;;;-141.85;100.00
51333;BME280;37417;48.118;11.734;2023-03-03T19:04:08;61376.22;;;-141.85;100.00
51333;BME280;37417;48.118;11.734;2023-03-03T19:09:10;61376.22;;;-141.85;100.00
51333;BME280;37417;48.118;11.734;2023-03-03T19:11:40;61376.22;;;-141.85;100.00
51333;BME280;37417;48.118;11.734;2023-03-03T19:16:42;61376.22;;;-141.85;100.00
51333;BME280;37417;48.118;11.734;2023-03-03T19:19:15;61376.22;;;-141.85;100.00
51333;BME280;37417;48.118;11.734;2023-03-03T19:21:43;61376.22;;;-141.85;100.00
51333;BME280;37417;48.118;11.734;2023-03-03T19:27:05;61376.22;;;-141.85;100.00
51333;BME280;37417;48.118;11.734;2023-03-03T19:32:30;61376.22;;;-141.85;100.00
51333;BME280;37417;48.118;11.734;2023-03-03T19:35:17;61376.22;;;-141.85;100.00
51333;BME280;37417;48.118;11.734;2023-03-03T19:38:03;61376.22;;;-141.85;100.00
51333;BME280;37417;48.118;11.734;2023-03-03T19:49:01;61376.22;;;-141.85;100.00
51333;BME280;37417;48.118;11.734;2023-03-03T19:52:08;61376.22;;;-141.85;100.00
51333;BME280;37417;48.118;11.734;2023-03-03T19:54:49;61376.22;;;-141.85;100.00
51333;BME280;37417;48.118;11.734;2023-03-03T20:03:18;61376.22;;;-141.85;100.00
51333;BME280;37417;48.118;11.734;2023-03-03T20:08:27;61376.22;;;-141.85;100.00
51333;BME280;37417;48.118;11.734;2023-03-03T20:11:00;61376.22;;;-141.85;100.00
51333;BME280;37417;48.118;11.734;2023-03-03T20:14:01;61376.22;;;-141.85;100.00
51333;BME280;37417;48.118;11.734;2023-03-03T20:16:39;61376.22;;;-141.85;100.00
51333;BME280;37417;48.118;11.734;2023-03-03T20:22:11;61376.22;;;-141.85;100.00
51333;BME280;37417;48.118;11.734;2023-03-03T20:27:22;61376.22;;;-141.85;100.00
51333;BME280;37417;48.118;11.734;2023-03-03T20:32:32;61376.22;;;-141.85;100.00
51333;BME280;37417;48.118;11.734;2023-03-03T20:35:16;61376.22;;;-141.85;100.00
51333;BME280;37417;48.118;11.734;2023-03-03T20:38:19;61376.22;;;-141.85;100.00
51333;BME280;37417;48.118;11.734;2023-03-03T20:40:56;61376.22;;;-141.85;100.00
51333;BME280;37417;48.118;11.734;2023-03-03T20:46:20;61376.22;;;-141.85;100.00
51333;BME280;37417;48.118;11.734;2023-03-03T21:04:30;61376.22;;;-141.85;100.00
51333;BME280;37417;48.118;11.734;2023-03-03T21:06:58;61376.22;;;-141.85;100.00
51333;BME280;37417;48.118;11.734;2023-03-03T21:09:30;61376.22;;;-141.85;100.00
51333;BME280;37417;48.118;11.734;2023-03-03T21:11:57;61376.22;;;-141.85;100.00
51333;BME280;37417;48.118;11.734;2023-03-03T21:14:26;61376.22;;;-141.85;100.00
51333;BME280;37417;48.118;11.734;2023-03-03T21:16:54;61376.22;;;-141.85;100.00
51333;BME280;37417;48.118;11.734;2023-03-03T21:19:34;61376.22;;;-141.85;100.00
51333;BME280;37417;48.118;11.734;2023-03-03T21:22:02;61376.22;;;-141.85;100.00
51333;BME280;37417;48.118;11.734;2023-03-03T21:24:52;61376.22;;;-141.85;100.00
51333;BME280;37417;48.118;11.734;2023-03-03T21:27:29;61376.22;;;-141.85;100.00
51333;BME280;37417;48.118;11.734;2023-03-03T21:30:12;61376.22;;;-141.85;100.00
51333;BME280;37417;48.118;11.734;2023-03-03T21:32:39;61376.22;;;-141.85;100.00
51333;BME280;37417;48.118;11.734;2023-03-03T21:35:14;61376.22;;;-141.85;100.00
51333;BME280;37417;48.118;11.734;2023-03-03T21:37:49;61376.22;;;-141.85;100.00
51333;BME280;37417;48.118;11.734;2023-03-03T21:42:47;61376.22;;;-141.85;100.00
51333;BME280;37417;48.118;11.734;2023-03-03T21:45:14;61376.22;;;-141.85;100.00
51333;BME280;37417;48.118;11.734;2023-03-03T21:47:40;61376.22;;;-141.85;100.00
51333;BME280;37417;48.118;11.734;2023-03-03T21:50:06;61376.22;;;-141.85;100.00
51333;BME280;37417;48.118;11.734;2023-03-03T21:52:32;61376.22;;;-141.85;100.00
51333;BME280;37417;48.118;11.734;2023-03-03T21:54:58;61376.22;;;-141.85;100.00
51333;BME280;37417;48.118;11.734;2023-03-03T21:57:23;61376.22;;;-141.85;100.00
51333;BME280;37417;48.118;11.734;2023-03-03T21:59:50;61376.22;;;-141.85;100.00
51333;BME280;37417;48.118;11.734;2023-03-03T22:02:15;61376.22;;;-141.85;100.00
51333;BME280;37417;48.118;11.734;2023-03-03T22:04:42;61376.22;;;-141.85;100.00
51333;BME280;37417;48.118;11.734;2023-03-03T22:07:08;61376.22;;;-141.85;100.00
51333;BME280;37417;48.118;11.734;2023-03-03T22:09:34;61376.22;;;-141.85;100.00
51333;BME280;37417;48.118;11.734;2023-03-03T22:12:00;61376.22;;;-141.85;100.00
51333;BME280;37417;48.118;11.734;2023-03-03T22:14:25;61376.22;;;-141.85;100.00
51333;BME280;37417;48.118;11.734;2023-03-03T22:16:51;61376.22;;;-141.85;100.00
51333;BME280;37417;48.118;11.734;2023-03-03T22:19:17;61376.22;;;-141.85;100.00
51333;BME280;37417;48.118;11.734;2023-03-03T22:21:42;61376.22;;;-141.85;100.00
51333;BME280;37417;48.118;11.734;2023-03-03T22:24:08;61376.22;;;-141.85;100.00
51333;BME280;37417;48.118;11.734;2023-03-03T22:26:34;61376.22;;;-141.85;100.00
51333;BME280;37417;48.118;11.734;2023-03-03T22:29:00;61376.22;;;-141.85;100.00
51333;BME280;37417;48.118;11.734;2023-03-03T22:31:25;61376.22;;;-141.85;100.00
51333;BME280;37417;48.118;11.734;2023-03-03T22:33:51;61376.22;;;-141.85;100.00
51333;BME280;37417;48.118;11.734;2023-03-03T22:36:16;61376.22;;;-141.85;100.00
51333;BME280;37417;48.118;11.734;2023-03-03T22:38:43;61376.22;;;-141.85;100.00
51333;BME280;37417;48.118;11.734;2023-03-03T22:41:09;61376.22;;;-141.85;100.00
51333;BME280;37417;48.118;11.734;2023-03-03T22:43:34;61376.22;;;-141.85;100.00
51333;BME280;37417;48.118;11.734;2023-03-03T22:46:00;61376.22;;;-141.85;100.00
51333;BME280;37417;48.118;11.734;2023-03-03T22:48:26;61376.22;;;-141.85;100.00
51333;BME280;37417;48.118;11.734;2023-03-03T22:50:53;61376.22;;;-141.85;100.00
51333;BME280;37417;48.118;11.734;2023-03-03T22:53:19;61376.22;;;-141.85;100.00
51333;BME280;37417;48.118;11.734;2023-03-03T22:55:44;61376.22;;;-141.85;100.00
51333;BME280;37417;48.118;11.734;2023-03-03T22:58:10;61376.22;;;-141.85;100.00
51333;BME280;37417;48.118;11.734;2023-03-03T23:00:36;61376.22;;;-141.85;100.00
51333;BME280;37417;48.118;11.734;2023-03-03T23:03:07;61376.22;;;-141.85;100.00
51333;BME280;37417;48.118;11.734;2023-03-03T23:05:32;61376.22;;;-141.85;100.00
51333;BME280;37417;48.118;11.734;2023-03-03T23:07:58;61376.22;;;-141.85;100.00
51333;BME280;37417;48.118;11.734;2023-03-03T23:10:24;61376.22;;;-141.85;100.00
51333;BME280;37417;48.118;11.734;2023-03-03T23:12:49;61376.22;;;-141.85;100.00
51333;BME280;37417;48.118;11.734;2023-03-03T23:15:15;61376.22;;;-141.85;100.00
51333;BME280;37417;48.118;11.734;2023-03-03T23:17:44;61376.22;;;-141.85;100.00
51333;BME280;37417;48.118;11.734;2023-03-03T23:20:15;61376.22;;;-141.85;100.00
51333;BME280;37417;48.118;11.734;2023-03-03T23:22:40;61376.22;;;-141.85;100.00
51333;BME280;37417;48.118;11.734;2023-03-03T23:25:07;61376.22;;;-141.85;100.00
51333;BME280;37417;48.118;11.734;2023-03-03T23:27:33;61376.22;;;-141.85;100.00
51333;BME280;37417;48.118;11.734;2023-03-03T23:29:59;61376.22;;;-141.85;100.00
51333;BME280;37417;48.118;11.734;2023-03-03T23:32:24;61376.22;;;-141.85;100.00
51333;BME280;37417;48.118;11.734;2023-03-03T23:34:52;61376.22;;;-141.85;100.00
51333;BME280;37417;48.118;11.734;2023-03-03T23:37:18;61376.22;;;-141.85;100.00
51333;BME280;37417;48.118;11.734;2023-03-03T23:39:43;61376.22;;;-141.85;100.00
51333;BME280;37417;48.118;11.734;2023-03-03T23:42:09;61376.22;;;-141.85;100.00
51333;BME280;37417;48.118;11.734;2023-03-03T23:44:34;61376.22;;;-141.85;100.00
51333;BME280;37417;48.118;11.734;2023-03-03T23:47:02;61376.22;;;-141.85;100.00
51333;BME280;37417;48.118;11.734;2023-03-03T23:49:28;61376.22;;;-141.85;100.00
51333;BME280;37417;48.118;11.734;2023-03-03T23:51:53;61376.22;;;-141.85;100.00
51333;BME280;37417;48.118;11.734;2023-03-03T23:54:19;61376.22;;;-141.85;100.00
51333;BME280;37417;48.118;11.734;2023-03-03T23:56:44;61376.22;;;-141.85;100.00
51333;BME280;37417;48.118;11.734;2023-03-03T23:59:10;61376.22;;;-141.85;100.00
